sensor_id;sensor_type;location;lat;lon;timestamp;temperature;humidity
52459;DHT22;38372;52.902;6.024;2022-08-19T00:00:37;15.20;99.90
52459;DHT22;38372;52.902;6.024;2022-08-19T00:03:04;15.20;99.90
52459;DHT22;38372;52.902;6.024;2022-08-19T00:05:30;15.20;99.90
52459;DHT22;38372;52.902;6.024;2022-08-19T00:07:57;15.10;99.90
52459;DHT22;38372;52.902;6.024;2022-08-19T00:10:23;15.10;99.90
52459;DHT22;38372;52.902;6.024;2022-08-19T00:12:50;15.10;99.90
52459;DHT22;38372;52.902;6.024;2022-08-19T00:15:18;15.10;99.90
52459;DHT22;38372;52.902;6.024;2022-08-19T00:17:45;15.10;99.90
52459;DHT22;38372;52.902;6.024;2022-08-19T00:20:13;15.10;99.90
52459;DHT22;38372;52.902;6.024;2022-08-19T00:22:42;15.10;99.90
52459;DHT22;38372;52.902;6.024;2022-08-19T00:25:08;15.00;99.90
52459;DHT22;38372;52.902;6.024;2022-08-19T00:27:34;15.00;99.90
52459;DHT22;38372;52.902;6.024;2022-08-19T00:30:00;15.00;99.90
52459;DHT22;38372;52.902;6.024;2022-08-19T00:32:28;15.00;99.90
52459;DHT22;38372;52.902;6.024;2022-08-19T00:34:54;15.00;99.90
52459;DHT22;38372;52.902;6.024;2022-08-19T00:37:24;15.00;99.90
52459;DHT22;38372;52.902;6.024;2022-08-19T00:39:52;15.00;99.90
52459;DHT22;38372;52.902;6.024;2022-08-19T00:42:19;15.00;99.90
52459;DHT22;38372;52.902;6.024;2022-08-19T00:44:46;14.90;99.90
52459;DHT22;38372;52.902;6.024;2022-08-19T00:47:13;14.80;99.90
52459;DHT22;38372;52.902;6.024;2022-08-19T00:49:48;14.80;99.90
52459;DHT22;38372;52.902;6.024;2022-08-19T00:52:24;14.70;99.90
52459;DHT22;38372;52.902;6.024;2022-08-19T00:54:51;14.70;99.90
52459;DHT22;38372;52.902;6.024;2022-08-19T00:57:24;14.70;99.90
52459;DHT22;38372;52.902;6.024;2022-08-19T00:59:52;14.60;99.90
52459;DHT22;38372;52.902;6.024;2022-08-19T01:02:19;14.60;99.90
52459;DHT22;38372;52.902;6.024;2022-08-19T01:04:45;14.50;99.90
52459;DHT22;38372;52.902;6.024;2022-08-19T01:07:12;14.50;99.90
52459;DHT22;38372;52.902;6.024;2022-08-19T01:09:38;14.50;99.90
52459;DHT22;38372;52.902;6.024;2022-08-19T01:12:04;14.40;99.90
52459;DHT22;38372;52.902;6.024;2022-08-19T01:14:30;14.30;99.90
52459;DHT22;38372;52.902;6.024;2022-08-19T01:16:57;14.30;99.90
52459;DHT22;38372;52.902;6.024;2022-08-19T01:19:36;14.20;99.90
52459;DHT22;38372;52.902;6.024;2022-08-19T01:22:57;14.10;99.90
52459;DHT22;38372;52.902;6.024;2022-08-19T01:24:57;14.10;99.90
52459;DHT22;38372;52.902;6.024;2022-08-19T01:27:22;14.00;99.90
52459;DHT22;38372;52.902;6.024;2022-08-19T01:29:50;14.00;99.90
52459;DHT22;38372;52.902;6.024;2022-08-19T01:32:16;14.00;99.90
52459;DHT22;38372;52.902;6.024;2022-08-19T01:34:43;13.90;99.90
52459;DHT22;38372;52.902;6.024;2022-08-19T01:37:14;13.80;99.90
52459;DHT22;38372;52.902;6.024;2022-08-19T01:39:41;13.90;99.90
52459;DHT22;38372;52.902;6.024;2022-08-19T01:42:08;13.80;99.90
52459;DHT22;38372;52.902;6.024;2022-08-19T01:44:38;13.80;99.90
52459;DHT22;38372;52.902;6.024;2022-08-19T01:47:05;13.80;99.90
52459;DHT22;38372;52.902;6.024;2022-08-19T01:49:32;13.80;99.90
52459;DHT22;38372;52.902;6.024;2022-08-19T01:52:00;13.70;99.90
52459;DHT22;38372;52.902;6.024;2022-08-19T01:54:26;13.70;99.90
52459;DHT22;38372;52.902;6.024;2022-08-19T01:56:58;13.60;99.90
52459;DHT22;38372;52.902;6.024;2022-08-19T01:59:24;13.60;99.90
52459;DHT22;38372;52.902;6.024;2022-08-19T02:01:50;13.60;99.90
52459;DHT22;38372;52.902;6.024;2022-08-19T02:04:16;13.70;99.90
52459;DHT22;38372;52.902;6.024;2022-08-19T02:06:42;13.70;99.90
52459;DHT22;38372;52.902;6.024;2022-08-19T02:09:09;13.70;99.90
52459;DHT22;38372;52.902;6.024;2022-08-19T02:11:36;13.80;99.90
52459;DHT22;38372;52.902;6.024;2022-08-19T02:14:05;13.80;99.90
52459;DHT22;38372;52.902;6.024;2022-08-19T02:16:32;13.80;99.90
52459;DHT22;38372;52.902;6.024;2022-08-19T02:18:58;13.80;99.90
52459;DHT22;38372;52.902;6.024;2022-08-19T02:21:28;13.80;99.90
52459;DHT22;38372;52.902;6.024;2022-08-19T02:23:54;13.80;99.90
52459;DHT22;38372;52.902;6.024;2022-08-19T02:26:21;13.80;99.90
52459;DHT22;38372;52.902;6.024;2022-08-19T02:28:47;13.90;99.90
52459;DHT22;38372;52.902;6.024;2022-08-19T02:31:19;13.90;99.90
52459;DHT22;38372;52.902;6.024;2022-08-19T02:33:46;13.90;99.90
52459;DHT22;38372;52.902;6.024;2022-08-19T02:36:14;13.90;99.90
52459;DHT22;38372;52.902;6.024;2022-08-19T02:38:40;13.90;99.90
52459;DHT22;38372;52.902;6.024;2022-08-19T02:41:20;13.90;99.90
52459;DHT22;38372;52.902;6.024;2022-08-19T02:43:47;13.90;99.90
52459;DHT22;38372;52.902;6.024;2022-08-19T02:46:14;13.90;99.90
52459;DHT22;38372;52.902;6.024;2022-08-19T02:48:40;13.90;99.90
52459;DHT22;38372;52.902;6.024;2022-08-19T02:51:06;13.90;99.90
52459;DHT22;38372;52.902;6.024;2022-08-19T02:53:31;13.90;99.90
52459;DHT22;38372;52.902;6.024;2022-08-19T02:55:57;13.90;99.90
52459;DHT22;38372;52.902;6.024;2022-08-19T02:58:23;13.90;99.90
52459;DHT22;38372;52.902;6.024;2022-08-19T03:00:53;13.90;99.90
52459;DHT22;38372;52.902;6.024;2022-08-19T03:03:20;13.80;99.90
52459;DHT22;38372;52.902;6.024;2022-08-19T03:05:46;13.80;99.90
52459;DHT22;38372;52.902;6.024;2022-08-19T03:08:12;13.80;99.90
52459;DHT22;38372;52.902;6.024;2022-08-19T03:10:46;13.80;99.90
52459;DHT22;38372;52.902;6.024;2022-08-19T03:13:15;13.80;99.90
52459;DHT22;38372;52.902;6.024;2022-08-19T03:15:46;13.80;99.90
52459;DHT22;38372;52.902;6.024;2022-08-19T03:18:12;13.80;99.90
52459;DHT22;38372;52.902;6.024;2022-08-19T03:20:48;13.80;99.90
52459;DHT22;38372;52.902;6.024;2022-08-19T03:23:15;13.80;99.90
52459;DHT22;38372;52.902;6.024;2022-08-19T03:25:44;13.70;99.90
52459;DHT22;38372;52.902;6.024;2022-08-19T03:28:12;13.60;99.90
52459;DHT22;38372;52.902;6.024;2022-08-19T03:30:38;13.50;99.90
52459;DHT22;38372;52.902;6.024;2022-08-19T03:33:08;13.40;99.90
52459;DHT22;38372;52.902;6.024;2022-08-19T03:35:34;13.40;99.90
52459;DHT22;38372;52.902;6.024;2022-08-19T03:38:05;13.40;99.90
52459;DHT22;38372;52.902;6.024;2022-08-19T03:40:32;13.40;99.90
52459;DHT22;38372;52.902;6.024;2022-08-19T03:43:00;13.40;99.90
52459;DHT22;38372;52.902;6.024;2022-08-19T03:45:26;13.40;99.90
52459;DHT22;38372;52.902;6.024;2022-08-19T03:47:53;13.40;99.90
52459;DHT22;38372;52.902;6.024;2022-08-19T03:50:19;13.40;99.90
52459;DHT22;38372;52.902;6.024;2022-08-19T03:52:49;13.40;99.90
52459;DHT22;38372;52.902;6.024;2022-08-19T03:55:16;13.50;99.90
52459;DHT22;38372;52.902;6.024;2022-08-19T03:57:42;13.50;99.90
52459;DHT22;38372;52.902;6.024;2022-08-19T04:00:09;13.60;99.90
52459;DHT22;38372;52.902;6.024;2022-08-19T04:02:35;13.60;99.90
52459;DHT22;38372;52.902;6.024;2022-08-19T04:05:01;13.60;99.90
52459;DHT22;38372;52.902;6.024;2022-08-19T04:07:27;13.70;99.90
52459;DHT22;38372;52.902;6.024;2022-08-19T04:09:53;13.70;99.90
52459;DHT22;38372;52.902;6.024;2022-08-19T04:12:19;13.70;99.90
52459;DHT22;38372;52.902;6.024;2022-08-19T04:14:45;13.70;99.90
52459;DHT22;38372;52.902;6.024;2022-08-19T04:17:12;13.70;99.90
52459;DHT22;38372;52.902;6.024;2022-08-19T04:19:40;13.70;99.90
52459;DHT22;38372;52.902;6.024;2022-08-19T04:22:06;13.70;99.90
52459;DHT22;38372;52.902;6.024;2022-08-19T04:24:34;13.70;99.90
52459;DHT22;38372;52.902;6.024;2022-08-19T04:27:02;13.70;99.90
52459;DHT22;38372;52.902;6.024;2022-08-19T04:29:29;13.80;99.90
52459;DHT22;38372;52.902;6.024;2022-08-19T04:31:56;13.80;99.90
52459;DHT22;38372;52.902;6.024;2022-08-19T04:34:24;13.80;99.90
52459;DHT22;38372;52.902;6.024;2022-08-19T04:36:51;13.80;99.90
52459;DHT22;38372;52.902;6.024;2022-08-19T04:39:21;13.80;99.90
52459;DHT22;38372;52.902;6.024;2022-08-19T04:41:47;13.80;99.90
52459;DHT22;38372;52.902;6.024;2022-08-19T04:44:33;13.80;99.90
52459;DHT22;38372;52.902;6.024;2022-08-19T04:47:00;13.80;99.90
52459;DHT22;38372;52.902;6.024;2022-08-19T04:49:26;13.80;99.90
52459;DHT22;38372;52.902;6.024;2022-08-19T04:51:53;13.80;99.90
52459;DHT22;38372;52.902;6.024;2022-08-19T04:54:22;13.80;99.90
52459;DHT22;38372;52.902;6.024;2022-08-19T04:56:49;13.80;99.90
52459;DHT22;38372;52.902;6.024;2022-08-19T04:59:16;13.80;99.90
52459;DHT22;38372;52.902;6.024;2022-08-19T05:01:44;13.80;99.90
52459;DHT22;38372;52.902;6.024;2022-08-19T05:04:15;13.80;99.90
52459;DHT22;38372;52.902;6.024;2022-08-19T05:06:42;13.80;99.90
52459;DHT22;38372;52.902;6.024;2022-08-19T05:09:09;13.80;99.90
52459;DHT22;38372;52.902;6.024;2022-08-19T05:11:36;13.80;99.90
52459;DHT22;38372;52.902;6.024;2022-08-19T05:14:07;13.90;99.90
52459;DHT22;38372;52.902;6.024;2022-08-19T05:16:33;13.90;99.90
52459;DHT22;38372;52.902;6.024;2022-08-19T05:18:59;14.00;99.90
52459;DHT22;38372;52.902;6.024;2022-08-19T05:21:44;14.10;99.90
52459;DHT22;38372;52.902;6.024;2022-08-19T05:24:29;14.20;99.90
52459;DHT22;38372;52.902;6.024;2022-08-19T05:26:55;14.20;99.90
52459;DHT22;38372;52.902;6.024;2022-08-19T05:29:26;14.30;99.90
52459;DHT22;38372;52.902;6.024;2022-08-19T05:31:53;14.40;99.90
52459;DHT22;38372;52.902;6.024;2022-08-19T05:34:21;14.50;99.90
52459;DHT22;38372;52.902;6.024;2022-08-19T05:36:49;14.60;99.90
52459;DHT22;38372;52.902;6.024;2022-08-19T05:39:19;14.70;99.90
52459;DHT22;38372;52.902;6.024;2022-08-19T05:41:49;14.80;99.90
52459;DHT22;38372;52.902;6.024;2022-08-19T05:44:16;15.00;99.90
52459;DHT22;38372;52.902;6.024;2022-08-19T05:46:44;15.10;99.90
52459;DHT22;38372;52.902;6.024;2022-08-19T05:49:13;15.20;99.90
52459;DHT22;38372;52.902;6.024;2022-08-19T05:51:40;15.30;99.90
52459;DHT22;38372;52.902;6.024;2022-08-19T05:54:06;15.40;99.90
52459;DHT22;38372;52.902;6.024;2022-08-19T05:56:34;15.50;99.90
52459;DHT22;38372;52.902;6.024;2022-08-19T05:59:05;15.60;99.90
52459;DHT22;38372;52.902;6.024;2022-08-19T06:01:35;15.80;99.90
52459;DHT22;38372;52.902;6.024;2022-08-19T06:04:02;15.90;99.90
52459;DHT22;38372;52.902;6.024;2022-08-19T06:06:28;16.00;99.90
52459;DHT22;38372;52.902;6.024;2022-08-19T06:08:54;16.20;99.90
52459;DHT22;38372;52.902;6.024;2022-08-19T06:13:48;16.50;99.90
52459;DHT22;38372;52.902;6.024;2022-08-19T06:16:17;16.70;99.90
52459;DHT22;38372;52.902;6.024;2022-08-19T06:18:49;16.90;99.90
52459;DHT22;38372;52.902;6.024;2022-08-19T06:21:21;17.10;99.90
52459;DHT22;38372;52.902;6.024;2022-08-19T06:23:48;17.30;99.90
52459;DHT22;38372;52.902;6.024;2022-08-19T06:26:16;17.70;99.90
52459;DHT22;38372;52.902;6.024;2022-08-19T06:28:42;18.00;99.90
52459;DHT22;38372;52.902;6.024;2022-08-19T06:34:46;18.50;99.90
52459;DHT22;38372;52.902;6.024;2022-08-19T06:37:13;18.80;99.90
52459;DHT22;38372;52.902;6.024;2022-08-19T06:39:41;19.00;99.90
52459;DHT22;38372;52.902;6.024;2022-08-19T06:42:07;19.10;99.90
52459;DHT22;38372;52.902;6.024;2022-08-19T06:44:38;19.30;99.90
52459;DHT22;38372;52.902;6.024;2022-08-19T06:47:06;19.50;99.90
52459;DHT22;38372;52.902;6.024;2022-08-19T06:49:33;19.60;99.90
52459;DHT22;38372;52.902;6.024;2022-08-19T06:52:00;19.90;99.90
52459;DHT22;38372;52.902;6.024;2022-08-19T06:54:27;20.10;99.90
52459;DHT22;38372;52.902;6.024;2022-08-19T06:56:56;20.20;99.90
52459;DHT22;38372;52.902;6.024;2022-08-19T06:59:24;20.50;99.90
52459;DHT22;38372;52.902;6.024;2022-08-19T07:01:55;20.60;99.90
52459;DHT22;38372;52.902;6.024;2022-08-19T07:04:27;20.80;99.90
52459;DHT22;38372;52.902;6.024;2022-08-19T07:07:14;20.90;99.90
52459;DHT22;38372;52.902;6.024;2022-08-19T07:09:43;21.10;99.90
52459;DHT22;38372;52.902;6.024;2022-08-19T07:12:12;21.20;99.90
52459;DHT22;38372;52.902;6.024;2022-08-19T07:14:39;21.30;99.90
52459;DHT22;38372;52.902;6.024;2022-08-19T07:17:08;21.30;99.90
52459;DHT22;38372;52.902;6.024;2022-08-19T07:19:35;21.40;99.90
52459;DHT22;38372;52.902;6.024;2022-08-19T07:22:03;21.50;99.90
52459;DHT22;38372;52.902;6.024;2022-08-19T07:24:31;21.50;99.90
52459;DHT22;38372;52.902;6.024;2022-08-19T07:27:00;21.60;99.90
52459;DHT22;38372;52.902;6.024;2022-08-19T07:29:29;21.80;99.90
52459;DHT22;38372;52.902;6.024;2022-08-19T07:31:55;21.80;99.90
52459;DHT22;38372;52.902;6.024;2022-08-19T07:34:23;21.70;99.90
52459;DHT22;38372;52.902;6.024;2022-08-19T07:36:50;21.70;99.90
52459;DHT22;38372;52.902;6.024;2022-08-19T07:39:25;21.70;99.90
52459;DHT22;38372;52.902;6.024;2022-08-19T07:41:52;21.70;99.90
52459;DHT22;38372;52.902;6.024;2022-08-19T07:44:19;21.70;99.90
52459;DHT22;38372;52.902;6.024;2022-08-19T07:46:47;21.80;99.90
52459;DHT22;38372;52.902;6.024;2022-08-19T07:49:14;21.90;99.90
52459;DHT22;38372;52.902;6.024;2022-08-19T07:51:48;22.00;99.90
52459;DHT22;38372;52.902;6.024;2022-08-19T07:54:15;22.10;99.90
52459;DHT22;38372;52.902;6.024;2022-08-19T07:56:41;22.30;99.90
52459;DHT22;38372;52.902;6.024;2022-08-19T07:59:07;22.60;99.90
52459;DHT22;38372;52.902;6.024;2022-08-19T08:01:34;22.80;99.90
52459;DHT22;38372;52.902;6.024;2022-08-19T08:04:01;23.10;99.90
52459;DHT22;38372;52.902;6.024;2022-08-19T08:06:45;23.40;99.90
52459;DHT22;38372;52.902;6.024;2022-08-19T08:09:36;23.80;99.90
52459;DHT22;38372;52.902;6.024;2022-08-19T08:12:08;24.10;99.90
52459;DHT22;38372;52.902;6.024;2022-08-19T08:14:51;24.40;99.90
52459;DHT22;38372;52.902;6.024;2022-08-19T08:17:19;24.60;99.90
52459;DHT22;38372;52.902;6.024;2022-08-19T08:19:46;24.60;99.90
52459;DHT22;38372;52.902;6.024;2022-08-19T08:22:15;24.70;99.90
52459;DHT22;38372;52.902;6.024;2022-08-19T08:25:06;24.80;99.90
52459;DHT22;38372;52.902;6.024;2022-08-19T08:27:36;25.00;99.90
52459;DHT22;38372;52.902;6.024;2022-08-19T08:30:06;25.30;99.90
52459;DHT22;38372;52.902;6.024;2022-08-19T08:32:39;25.50;99.90
52459;DHT22;38372;52.902;6.024;2022-08-19T08:35:06;25.60;99.90
52459;DHT22;38372;52.902;6.024;2022-08-19T08:37:32;25.90;99.90
52459;DHT22;38372;52.902;6.024;2022-08-19T08:39:58;26.00;99.90
52459;DHT22;38372;52.902;6.024;2022-08-19T08:42:32;26.10;99.90
52459;DHT22;38372;52.902;6.024;2022-08-19T08:45:08;26.30;99.90
52459;DHT22;38372;52.902;6.024;2022-08-19T08:48:04;26.60;99.90
52459;DHT22;38372;52.902;6.024;2022-08-19T08:50:39;26.80;99.90
52459;DHT22;38372;52.902;6.024;2022-08-19T08:53:07;26.80;99.90
52459;DHT22;38372;52.902;6.024;2022-08-19T08:55:34;26.60;99.90
52459;DHT22;38372;52.902;6.024;2022-08-19T08:58:01;26.60;99.90
52459;DHT22;38372;52.902;6.024;2022-08-19T09:00:31;26.70;99.90
52459;DHT22;38372;52.902;6.024;2022-08-19T09:02:58;26.80;99.90
52459;DHT22;38372;52.902;6.024;2022-08-19T09:05:38;27.00;99.90
52459;DHT22;38372;52.902;6.024;2022-08-19T09:08:22;27.40;99.90
52459;DHT22;38372;52.902;6.024;2022-08-19T09:10:54;27.50;99.90
52459;DHT22;38372;52.902;6.024;2022-08-19T09:16:37;27.90;99.90
52459;DHT22;38372;52.902;6.024;2022-08-19T09:19:07;27.90;99.90
52459;DHT22;38372;52.902;6.024;2022-08-19T09:21:34;27.40;99.90
52459;DHT22;38372;52.902;6.024;2022-08-19T09:24:03;26.90;99.90
52459;DHT22;38372;52.902;6.024;2022-08-19T09:26:31;27.10;99.90
52459;DHT22;38372;52.902;6.024;2022-08-19T09:28:58;27.30;99.90
52459;DHT22;38372;52.902;6.024;2022-08-19T09:31:29;27.60;99.90
52459;DHT22;38372;52.902;6.024;2022-08-19T09:33:55;27.80;99.90
52459;DHT22;38372;52.902;6.024;2022-08-19T09:36:27;28.00;99.90
52459;DHT22;38372;52.902;6.024;2022-08-19T09:38:55;28.20;99.90
52459;DHT22;38372;52.902;6.024;2022-08-19T09:41:23;28.30;99.90
52459;DHT22;38372;52.902;6.024;2022-08-19T09:43:52;28.50;99.90
52459;DHT22;38372;52.902;6.024;2022-08-19T09:46:19;28.50;99.90
52459;DHT22;38372;52.902;6.024;2022-08-19T09:48:47;28.50;99.90
52459;DHT22;38372;52.902;6.024;2022-08-19T09:51:17;28.70;99.90
52459;DHT22;38372;52.902;6.024;2022-08-19T09:53:44;28.90;99.90
52459;DHT22;38372;52.902;6.024;2022-08-19T09:56:11;29.10;99.90
52459;DHT22;38372;52.902;6.024;2022-08-19T09:58:37;29.20;98.60
52459;DHT22;38372;52.902;6.024;2022-08-19T10:01:04;29.20;99.00
52459;DHT22;38372;52.902;6.024;2022-08-19T10:03:33;29.30;99.60
52459;DHT22;38372;52.902;6.024;2022-08-19T10:06:01;29.60;97.70
52459;DHT22;38372;52.902;6.024;2022-08-19T10:08:30;29.80;97.90
52459;DHT22;38372;52.902;6.024;2022-08-19T10:10:57;29.90;97.90
52459;DHT22;38372;52.902;6.024;2022-08-19T10:13:26;30.10;97.90
52459;DHT22;38372;52.902;6.024;2022-08-19T10:15:53;30.30;97.00
52459;DHT22;38372;52.902;6.024;2022-08-19T10:18:22;30.30;97.70
52459;DHT22;38372;52.902;6.024;2022-08-19T10:20:50;30.60;97.20
52459;DHT22;38372;52.902;6.024;2022-08-19T10:23:17;30.60;95.50
52459;DHT22;38372;52.902;6.024;2022-08-19T10:25:43;30.60;95.70
52459;DHT22;38372;52.902;6.024;2022-08-19T10:28:09;30.50;96.50
52459;DHT22;38372;52.902;6.024;2022-08-19T10:30:39;30.50;95.80
52459;DHT22;38372;52.902;6.024;2022-08-19T10:33:06;30.70;93.90
52459;DHT22;38372;52.902;6.024;2022-08-19T10:35:32;30.70;93.40
52459;DHT22;38372;52.902;6.024;2022-08-19T10:37:58;30.70;93.80
52459;DHT22;38372;52.902;6.024;2022-08-19T10:40:25;30.80;93.90
52459;DHT22;38372;52.902;6.024;2022-08-19T10:42:53;30.80;93.50
52459;DHT22;38372;52.902;6.024;2022-08-19T10:45:18;30.80;93.40
52459;DHT22;38372;52.902;6.024;2022-08-19T10:47:47;30.90;93.30
52459;DHT22;38372;52.902;6.024;2022-08-19T10:50:13;30.80;92.00
52459;DHT22;38372;52.902;6.024;2022-08-19T10:52:57;30.70;92.10
52459;DHT22;38372;52.902;6.024;2022-08-19T10:55:28;30.30;91.60
52459;DHT22;38372;52.902;6.024;2022-08-19T10:58:15;30.00;93.10
52459;DHT22;38372;52.902;6.024;2022-08-19T11:00:41;30.00;93.40
52459;DHT22;38372;52.902;6.024;2022-08-19T11:03:09;29.70;93.50
52459;DHT22;38372;52.902;6.024;2022-08-19T11:05:35;29.50;92.90
52459;DHT22;38372;52.902;6.024;2022-08-19T11:08:03;29.30;94.10
52459;DHT22;38372;52.902;6.024;2022-08-19T11:10:28;29.30;94.80
52459;DHT22;38372;52.902;6.024;2022-08-19T11:12:54;29.40;95.70
52459;DHT22;38372;52.902;6.024;2022-08-19T11:15:21;29.50;94.50
52459;DHT22;38372;52.902;6.024;2022-08-19T11:17:47;29.40;94.60
52459;DHT22;38372;52.902;6.024;2022-08-19T11:20:14;29.40;94.60
52459;DHT22;38372;52.902;6.024;2022-08-19T11:22:40;29.20;93.70
52459;DHT22;38372;52.902;6.024;2022-08-19T11:25:08;28.90;95.20
52459;DHT22;38372;52.902;6.024;2022-08-19T11:27:40;28.70;95.30
52459;DHT22;38372;52.902;6.024;2022-08-19T11:30:09;28.60;94.50
52459;DHT22;38372;52.902;6.024;2022-08-19T11:32:36;28.50;93.90
52459;DHT22;38372;52.902;6.024;2022-08-19T11:35:02;28.30;95.30
52459;DHT22;38372;52.902;6.024;2022-08-19T11:37:28;28.20;97.30
52459;DHT22;38372;52.902;6.024;2022-08-19T11:39:53;28.20;98.20
52459;DHT22;38372;52.902;6.024;2022-08-19T11:42:19;28.10;97.70
52459;DHT22;38372;52.902;6.024;2022-08-19T11:45:04;28.10;98.00
52459;DHT22;38372;52.902;6.024;2022-08-19T11:47:30;28.20;98.80
52459;DHT22;38372;52.902;6.024;2022-08-19T11:49:56;28.40;98.80
52459;DHT22;38372;52.902;6.024;2022-08-19T11:52:22;28.50;98.20
52459;DHT22;38372;52.902;6.024;2022-08-19T11:54:48;28.40;97.80
52459;DHT22;38372;52.902;6.024;2022-08-19T11:57:14;28.30;98.10
52459;DHT22;38372;52.902;6.024;2022-08-19T11:59:47;28.20;98.40
52459;DHT22;38372;52.902;6.024;2022-08-19T12:02:13;28.00;97.80
52459;DHT22;38372;52.902;6.024;2022-08-19T12:04:40;27.80;98.80
52459;DHT22;38372;52.902;6.024;2022-08-19T12:07:06;27.90;99.40
52459;DHT22;38372;52.902;6.024;2022-08-19T12:09:32;28.00;98.00
52459;DHT22;38372;52.902;6.024;2022-08-19T12:12:00;28.00;98.00
52459;DHT22;38372;52.902;6.024;2022-08-19T12:14:27;27.80;97.70
52459;DHT22;38372;52.902;6.024;2022-08-19T12:16:55;27.50;98.10
52459;DHT22;38372;52.902;6.024;2022-08-19T12:19:21;27.20;98.90
52459;DHT22;38372;52.902;6.024;2022-08-19T12:21:48;27.10;99.40
52459;DHT22;38372;52.902;6.024;2022-08-19T12:24:13;27.00;99.90
52459;DHT22;38372;52.902;6.024;2022-08-19T12:26:39;27.00;99.70
52459;DHT22;38372;52.902;6.024;2022-08-19T12:29:05;27.00;99.80
52459;DHT22;38372;52.902;6.024;2022-08-19T12:31:32;27.20;99.90
52459;DHT22;38372;52.902;6.024;2022-08-19T12:33:58;27.40;99.90
52459;DHT22;38372;52.902;6.024;2022-08-19T12:36:24;27.50;99.90
52459;DHT22;38372;52.902;6.024;2022-08-19T12:38:51;27.40;99.90
52459;DHT22;38372;52.902;6.024;2022-08-19T12:41:18;27.20;99.90
52459;DHT22;38372;52.902;6.024;2022-08-19T12:43:45;27.10;99.90
52459;DHT22;38372;52.902;6.024;2022-08-19T12:46:11;26.90;99.90
52459;DHT22;38372;52.902;6.024;2022-08-19T12:48:38;26.70;99.90
52459;DHT22;38372;52.902;6.024;2022-08-19T12:51:10;26.40;99.90
52459;DHT22;38372;52.902;6.024;2022-08-19T12:53:36;26.10;99.90
52459;DHT22;38372;52.902;6.024;2022-08-19T12:56:03;25.90;99.90
52459;DHT22;38372;52.902;6.024;2022-08-19T12:58:30;25.70;99.90
52459;DHT22;38372;52.902;6.024;2022-08-19T13:00:57;25.50;99.90
52459;DHT22;38372;52.902;6.024;2022-08-19T13:03:23;25.50;99.90
52459;DHT22;38372;52.902;6.024;2022-08-19T13:05:54;25.40;99.90
52459;DHT22;38372;52.902;6.024;2022-08-19T13:08:20;25.40;99.90
52459;DHT22;38372;52.902;6.024;2022-08-19T13:10:46;25.40;99.90
52459;DHT22;38372;52.902;6.024;2022-08-19T13:13:12;25.60;99.90
52459;DHT22;38372;52.902;6.024;2022-08-19T13:15:40;26.00;99.90
52459;DHT22;38372;52.902;6.024;2022-08-19T13:18:09;26.20;99.90
52459;DHT22;38372;52.902;6.024;2022-08-19T13:20:36;26.40;99.90
52459;DHT22;38372;52.902;6.024;2022-08-19T13:23:03;26.60;99.90
52459;DHT22;38372;52.902;6.024;2022-08-19T13:25:29;26.70;99.90
52459;DHT22;38372;52.902;6.024;2022-08-19T13:27:55;26.50;99.90
52459;DHT22;38372;52.902;6.024;2022-08-19T13:30:21;26.10;99.90
52459;DHT22;38372;52.902;6.024;2022-08-19T13:33:07;25.80;99.90
52459;DHT22;38372;52.902;6.024;2022-08-19T13:35:41;25.50;99.90
52459;DHT22;38372;52.902;6.024;2022-08-19T13:38:07;25.30;99.90
52459;DHT22;38372;52.902;6.024;2022-08-19T13:40:33;25.20;99.90
52459;DHT22;38372;52.902;6.024;2022-08-19T13:43:00;25.20;99.90
52459;DHT22;38372;52.902;6.024;2022-08-19T13:45:28;25.10;99.90
52459;DHT22;38372;52.902;6.024;2022-08-19T13:47:56;24.90;99.90
52459;DHT22;38372;52.902;6.024;2022-08-19T13:50:26;24.80;99.90
52459;DHT22;38372;52.902;6.024;2022-08-19T13:52:53;24.70;99.90
52459;DHT22;38372;52.902;6.024;2022-08-19T13:55:20;24.60;99.90
52459;DHT22;38372;52.902;6.024;2022-08-19T13:57:49;24.50;99.90
52459;DHT22;38372;52.902;6.024;2022-08-19T14:00:17;24.50;99.90
52459;DHT22;38372;52.902;6.024;2022-08-19T14:02:46;24.60;99.90
52459;DHT22;38372;52.902;6.024;2022-08-19T14:05:15;24.60;99.90
52459;DHT22;38372;52.902;6.024;2022-08-19T14:07:41;24.70;99.90
52459;DHT22;38372;52.902;6.024;2022-08-19T14:10:09;24.90;99.90
52459;DHT22;38372;52.902;6.024;2022-08-19T14:12:36;25.10;99.90
52459;DHT22;38372;52.902;6.024;2022-08-19T14:15:03;25.30;99.90
52459;DHT22;38372;52.902;6.024;2022-08-19T14:17:29;25.40;99.90
52459;DHT22;38372;52.902;6.024;2022-08-19T14:19:59;25.30;99.90
52459;DHT22;38372;52.902;6.024;2022-08-19T14:22:29;25.10;99.90
52459;DHT22;38372;52.902;6.024;2022-08-19T14:24:59;25.10;99.90
52459;DHT22;38372;52.902;6.024;2022-08-19T14:27:25;25.10;99.90
52459;DHT22;38372;52.902;6.024;2022-08-19T14:29:54;25.10;99.90
52459;DHT22;38372;52.902;6.024;2022-08-19T14:32:20;25.20;99.90
52459;DHT22;38372;52.902;6.024;2022-08-19T14:34:50;25.20;99.90
52459;DHT22;38372;52.902;6.024;2022-08-19T14:37:16;25.20;99.90
52459;DHT22;38372;52.902;6.024;2022-08-19T14:39:43;25.30;99.90
52459;DHT22;38372;52.902;6.024;2022-08-19T14:42:11;25.40;99.90
52459;DHT22;38372;52.902;6.024;2022-08-19T14:44:37;25.50;99.90
52459;DHT22;38372;52.902;6.024;2022-08-19T14:47:03;25.60;99.90
52459;DHT22;38372;52.902;6.024;2022-08-19T14:49:29;25.70;99.90
52459;DHT22;38372;52.902;6.024;2022-08-19T14:51:55;25.70;99.90
52459;DHT22;38372;52.902;6.024;2022-08-19T14:54:21;25.70;99.90
52459;DHT22;38372;52.902;6.024;2022-08-19T14:56:47;25.60;99.90
52459;DHT22;38372;52.902;6.024;2022-08-19T14:59:14;25.50;99.90
52459;DHT22;38372;52.902;6.024;2022-08-19T15:01:40;25.40;99.90
52459;DHT22;38372;52.902;6.024;2022-08-19T15:04:06;25.30;99.90
52459;DHT22;38372;52.902;6.024;2022-08-19T15:06:32;25.10;99.90
52459;DHT22;38372;52.902;6.024;2022-08-19T15:08:59;25.00;99.90
52459;DHT22;38372;52.902;6.024;2022-08-19T15:11:27;24.80;99.90
52459;DHT22;38372;52.902;6.024;2022-08-19T15:13:54;24.60;99.90
52459;DHT22;38372;52.902;6.024;2022-08-19T15:16:21;24.50;99.90
52459;DHT22;38372;52.902;6.024;2022-08-19T15:18:52;24.40;99.90
52459;DHT22;38372;52.902;6.024;2022-08-19T15:21:18;24.30;99.90
52459;DHT22;38372;52.902;6.024;2022-08-19T15:23:45;24.20;99.90
52459;DHT22;38372;52.902;6.024;2022-08-19T15:26:13;24.30;99.90
52459;DHT22;38372;52.902;6.024;2022-08-19T15:28:39;24.30;99.90
52459;DHT22;38372;52.902;6.024;2022-08-19T15:31:05;24.30;99.90
52459;DHT22;38372;52.902;6.024;2022-08-19T15:33:32;24.30;99.90
52459;DHT22;38372;52.902;6.024;2022-08-19T15:36:00;24.30;99.90
52459;DHT22;38372;52.902;6.024;2022-08-19T15:38:26;24.40;99.90
52459;DHT22;38372;52.902;6.024;2022-08-19T15:40:52;24.40;99.90
52459;DHT22;38372;52.902;6.024;2022-08-19T15:43:19;24.40;99.90
52459;DHT22;38372;52.902;6.024;2022-08-19T15:45:48;24.40;99.90